Time;durP1;ratioP1;P1;durP2;ratioP2;P2;SDS_P1;SDS_P2;PMS_P1;PMS_P2;Temp;Humidity;BMP_temperature;BMP_pressure;BME280_temperature;BME280_humidity;BME280_pressure;Samples;Min_cycle;Max_cycle;Signal;HPM_P1;HPM_P2
2024/01/25 00:00:40;;;;;;;15.98;3.40;;;;;;;;;;6229228;28;20057;-67
2024/01/25 00:04:00;;;;;;;12.15;3.10;;;;;;;;;;6225857;28;20072;-66
2024/01/25 00:07:01;;;;;;;15.27;3.45;;;;;;;;;;6231920;28;20045;-67
2024/01/25 00:10:02;;;;;;;16.05;3.92;;;;;;;;;;6227917;28;20057;-66
2024/01/25 00:13:03;;;;;;;15.65;4.05;;;;;;;;;;6229891;28;21451;-68
2024/01/25 00:16:04;;;;;;;14.10;3.55;;;;;;;;;;6229337;28;20647;-66
2024/01/25 00:19:05;;;;;;;14.83;3.77;;;;;;;;;;6223901;28;20053;-66
2024/01/25 00:22:06;;;;;;;14.90;3.63;;;;;;;;;;6226591;28;20495;-67
2024/01/25 00:25:07;;;;;;;17.77;3.40;;;;;;;;;;6230567;28;20057;-66
2024/01/25 00:28:07;;;;;;;15.02;3.00;;;;;;;;;;6228708;28;20058;-67
2024/01/25 00:31:08;;;;;;;14.00;3.50;;;;;;;;;;6230922;28;20058;-67
2024/01/25 00:34:09;;;;;;;15.38;4.25;;;;;;;;;;6228649;28;20868;-67
2024/01/25 00:37:10;;;;;;;12.15;2.50;;;;;;;;;;6232230;28;20045;-67
2024/01/25 00:40:13;;;;;;;16.08;3.72;;;;;;;;;;6227626;28;20053;-66
2024/01/25 00:43:15;;;;;;;14.75;3.10;;;;;;;;;;6228936;28;20053;-66
2024/01/25 00:46:16;;;;;;;15.90;3.17;;;;;;;;;;6229557;28;20065;-66
2024/01/25 00:49:17;;;;;;;13.43;3.30;;;;;;;;;;6226395;28;20057;-66
2024/01/25 00:52:18;;;;;;;8.73;2.60;;;;;;;;;;6228639;28;20136;-66
2024/01/25 00:55:19;;;;;;;12.35;3.42;;;;;;;;;;6227364;28;20050;-66
2024/01/25 00:58:20;;;;;;;15.93;3.05;;;;;;;;;;6225550;28;20485;-66
2024/01/25 01:01:23;;;;;;;14.63;3.00;;;;;;;;;;6230463;28;20061;-65
2024/01/25 01:04:23;;;;;;;;;;;;;;;;;;6225291;28;20059;-65
2024/01/25 01:07:26;;;;;;;13.98;2.80;;;;;;;;;;6229278;28;19929;-66
2024/01/25 01:10:27;;;;;;;14.35;2.65;;;;;;;;;;6228551;28;20050;-65
2024/01/25 01:13:28;;;;;;;15.02;2.83;;;;;;;;;;6225968;28;21847;-65
2024/01/25 01:16:32;;;;;;;16.13;2.80;;;;;;;;;;6227568;28;20514;-65
2024/01/25 01:19:33;;;;;;;10.60;2.90;;;;;;;;;;6228785;28;20037;-66
2024/01/25 01:22:34;;;;;;;11.50;2.40;;;;;;;;;;6228664;28;21242;-65
2024/01/25 01:25:35;;;;;;;20.30;2.88;;;;;;;;;;6224834;28;20570;-66
2024/01/25 01:28:36;;;;;;;10.52;3.67;;;;;;;;;;6223214;28;20089;-66
2024/01/25 01:31:36;;;;;;;15.52;2.65;;;;;;;;;;6229669;28;20145;-66
2024/01/25 01:34:37;;;;;;;12.05;2.20;;;;;;;;;;6224072;28;20060;-66
2024/01/25 01:37:38;;;;;;;14.00;2.17;;;;;;;;;;6224557;28;20049;-65
2024/01/25 01:40:38;;;;;;;9.55;2.60;;;;;;;;;;6225803;28;20512;-66
2024/01/25 01:43:40;;;;;;;9.50;2.28;;;;;;;;;;6227938;28;20087;-65
2024/01/25 01:46:42;;;;;;;12.40;2.95;;;;;;;;;;6228999;28;20413;-65
2024/01/25 01:49:43;;;;;;;16.20;2.70;;;;;;;;;;6229729;28;20049;-66
2024/01/25 01:52:45;;;;;;;11.05;2.50;;;;;;;;;;6238330;28;20425;-65
2024/01/25 01:55:47;;;;;;;11.45;2.63;;;;;;;;;;6236162;28;20072;-66
2024/01/25 01:58:48;;;;;;;10.02;2.17;;;;;;;;;;6238631;28;20049;-65
2024/01/25 02:01:49;;;;;;;15.87;2.60;;;;;;;;;;6239469;28;20048;-67
2024/01/25 02:04:49;;;;;;;10.40;2.25;;;;;;;;;;6236153;28;20049;-65
2024/01/25 02:07:52;;;;;;;9.48;2.45;;;;;;;;;;6239292;28;20049;-65
2024/01/25 02:10:54;;;;;;;;;;;;;;;;;;6238205;28;20060;-66
2024/01/25 02:13:56;;;;;;;11.30;2.05;;;;;;;;;;6228835;28;19925;-66
2024/01/25 02:16:56;;;;;;;10.77;2.00;;;;;;;;;;6238492;28;20045;-65
2024/01/25 02:19:57;;;;;;;6.40;2.00;;;;;;;;;;6238917;28;20389;-66
2024/01/25 02:22:58;;;;;;;11.98;3.25;;;;;;;;;;6235953;28;20056;-66
2024/01/25 02:25:59;;;;;;;10.07;1.88;;;;;;;;;;6237730;28;20050;-67
2024/01/25 02:28:59;;;;;;;14.10;2.10;;;;;;;;;;6238667;28;20049;-66
2024/01/25 02:32:00;;;;;;;10.85;2.22;;;;;;;;;;6237949;28;20672;-66
2024/01/25 02:35:01;;;;;;;11.20;2.30;;;;;;;;;;6235895;28;20045;-66
2024/01/25 02:38:02;;;;;;;8.60;2.13;;;;;;;;;;6238227;28;20077;-66
2024/01/25 02:41:02;;;;;;;12.95;2.47;;;;;;;;;;6238483;28;20071;-66
2024/01/25 02:44:04;;;;;;;15.45;2.63;;;;;;;;;;6238277;28;20045;-65
2024/01/25 02:47:04;;;;;;;13.60;2.00;;;;;;;;;;6235982;28;20059;-68
2024/01/25 02:50:06;;;;;;;10.98;2.20;;;;;;;;;;6238915;28;20140;-66
2024/01/25 02:53:06;;;;;;;11.93;2.20;;;;;;;;;;6235086;28;21021;-65
2024/01/25 02:56:08;;;;;;;5.95;1.95;;;;;;;;;;6237368;28;20401;-65
2024/01/25 02:59:08;;;;;;;11.85;1.75;;;;;;;;;;6239224;28;20041;-66
2024/01/25 03:02:09;;;;;;;12.48;2.33;;;;;;;;;;6243139;28;20136;-66
2024/01/25 03:05:10;;;;;;;12.50;2.45;;;;;;;;;;6241419;28;20488;-65
2024/01/25 03:08:11;;;;;;;15.13;2.63;;;;;;;;;;6243219;28;20041;-67
2024/01/25 03:11:11;;;;;;;12.77;2.17;;;;;;;;;;6242420;28;20052;-67
2024/01/25 03:14:12;;;;;;;15.95;2.90;;;;;;;;;;6240136;28;20060;-67
2024/01/25 03:17:13;;;;;;;10.07;3.03;;;;;;;;;;6242296;28;20053;-65
2024/01/25 03:20:14;;;;;;;11.15;2.10;;;;;;;;;;6242838;28;20452;-67
2024/01/25 03:23:14;;;;;;;21.70;2.55;;;;;;;;;;6242184;28;20416;-66
2024/01/25 03:26:15;;;;;;;10.70;2.53;;;;;;;;;;6241778;28;20058;-65
2024/01/25 03:29:16;;;;;;;7.53;1.65;;;;;;;;;;6242130;28;20041;-65
2024/01/25 03:32:16;;;;;;;8.75;2.20;;;;;;;;;;6242311;28;20088;-68
2024/01/25 03:35:17;;;;;;;12.13;2.80;;;;;;;;;;6239512;28;20050;-66
2024/01/25 03:38:18;;;;;;;10.10;1.90;;;;;;;;;;6242026;28;20058;-65
2024/01/25 03:41:19;;;;;;;11.80;1.88;;;;;;;;;;6241026;28;20041;-65
2024/01/25 03:44:20;;;;;;;9.57;1.95;;;;;;;;;;6242573;28;20060;-66
2024/01/25 03:47:21;;;;;;;13.68;2.03;;;;;;;;;;6240132;28;20057;-66
2024/01/25 03:50:22;;;;;;;10.38;2.42;;;;;;;;;;6242633;28;20049;-65
2024/01/25 03:53:23;;;;;;;8.38;1.90;;;;;;;;;;6240230;28;20501;-68
2024/01/25 03:56:26;;;;;;;13.25;1.95;;;;;;;;;;6238756;28;20060;-66
2024/01/25 03:59:27;;;;;;;12.73;2.30;;;;;;;;;;6241261;28;20049;-65
2024/01/25 04:02:28;;;;;;;10.27;1.98;;;;;;;;;;6243271;28;20118;-66
2024/01/25 04:05:28;;;;;;;7.43;1.85;;;;;;;;;;6240197;28;20053;-65
2024/01/25 04:08:29;;;;;;;9.93;1.88;;;;;;;;;;6240346;28;20057;-67
2024/01/25 04:11:30;;;;;;;15.63;2.13;;;;;;;;;;6241180;28;20049;-65
2024/01/25 04:14:31;;;;;;;12.35;2.20;;;;;;;;;;6239263;28;20664;-65
2024/01/25 04:17:31;;;;;;;7.65;1.83;;;;;;;;;;6241084;28;20555;-69
2024/01/25 04:20:34;;;;;;;15.05;2.50;;;;;;;;;;6242117;28;20509;-65
2024/01/25 04:23:34;;;;;;;14.43;1.80;;;;;;;;;;6239339;28;20083;-65
2024/01/25 04:26:38;;;;;;;13.05;2.15;;;;;;;;;;6240145;28;20061;-65
2024/01/25 04:29:41;;;;;;;11.25;2.17;;;;;;;;;;6239883;28;20053;-65
2024/01/25 04:32:42;;;;;;;9.88;2.40;;;;;;;;;;6241796;28;20057;-65
2024/01/25 04:35:43;;;;;;;11.35;2.15;;;;;;;;;;6239669;28;20408;-65
2024/01/25 04:38:44;;;;;;;10.70;1.88;;;;;;;;;;6238839;28;20042;-65
2024/01/25 04:41:44;;;;;;;9.45;1.83;;;;;;;;;;6238590;28;20046;-65
2024/01/25 04:44:45;;;;;;;9.52;2.22;;;;;;;;;;6238487;28;20045;-65
2024/01/25 04:47:46;;;;;;;9.25;2.15;;;;;;;;;;6238303;28;20088;-66
2024/01/25 04:50:47;;;;;;;9.85;1.95;;;;;;;;;;6237668;28;20037;-65
2024/01/25 04:53:47;;;;;;;8.82;1.95;;;;;;;;;;6239306;28;20041;-66
2024/01/25 04:56:48;;;;;;;10.77;2.67;;;;;;;;;;6239945;28;20071;-66
2024/01/25 04:59:49;;;;;;;11.60;2.17;;;;;;;;;;6240097;28;20107;-65
2024/01/25 05:02:50;;;;;;;7.47;1.90;;;;;;;;;;6235443;28;20076;-66
2024/01/25 05:05:50;;;;;;;9.02;2.20;;;;;;;;;;6238439;28;21635;-65
2024/01/25 05:08:51;;;;;;;6.90;2.17;;;;;;;;;;6240698;28;20042;-66
2024/01/25 05:11:52;;;;;;;10.18;2.30;;;;;;;;;;6239750;28;20050;-65
2024/01/25 05:14:53;;;;;;;8.82;2.05;;;;;;;;;;6236157;28;20041;-65
2024/01/25 05:17:54;;;;;;;8.18;1.90;;;;;;;;;;6239734;28;20421;-67
2024/01/25 05:20:55;;;;;;;7.00;1.60;;;;;;;;;;6236633;28;20053;-69
2024/01/25 05:23:55;;;;;;;9.07;1.98;;;;;;;;;;6239674;28;20076;-67
2024/01/25 05:26:56;;;;;;;9.32;1.88;;;;;;;;;;6238946;28;20061;-65
2024/01/25 05:29:56;;;;;;;11.30;1.85;;;;;;;;;;6238600;28;20054;-66
2024/01/25 05:32:57;;;;;;;10.70;1.92;;;;;;;;;;6238454;28;20041;-67
2024/01/25 05:35:58;;;;;;;10.50;1.73;;;;;;;;;;6238179;28;20052;-67
2024/01/25 05:38:59;;;;;;;8.20;1.90;;;;;;;;;;6238704;28;20041;-66
2024/01/25 05:41:59;;;;;;;10.55;1.75;;;;;;;;;;6239585;28;20049;-66
2024/01/25 05:45:00;;;;;;;14.35;2.10;;;;;;;;;;6237676;28;20053;-66
2024/01/25 05:48:00;;;;;;;11.10;1.98;;;;;;;;;;6237619;28;20049;-66
2024/01/25 05:51:01;;;;;;;9.32;1.75;;;;;;;;;;6239223;28;20279;-65
2024/01/25 05:54:02;;;;;;;12.63;1.83;;;;;;;;;;6237831;28;20041;-67
2024/01/25 05:57:03;;;;;;;11.05;2.42;;;;;;;;;;6237685;28;20054;-69
2024/01/25 06:00:05;;;;;;;10.90;2.38;;;;;;;;;;6238954;28;20412;-66
2024/01/25 06:03:06;;;;;;;7.45;2.28;;;;;;;;;;6251654;28;20041;-66
2024/01/25 06:06:07;;;;;;;9.43;1.98;;;;;;;;;;6246789;28;20823;-67
2024/01/25 06:09:08;;;;;;;9.60;2.13;;;;;;;;;;6250986;28;20049;-66
2024/01/25 06:12:09;;;;;;;12.05;2.78;;;;;;;;;;6242758;28;20041;-66
2024/01/25 06:15:10;;;;;;;10.10;1.90;;;;;;;;;;6238704;28;20049;-67
2024/01/25 06:18:10;;;;;;;11.07;2.63;;;;;;;;;;6251568;28;20504;-66
2024/01/25 06:21:11;;;;;;;11.85;2.33;;;;;;;;;;6244556;28;20143;-66
2024/01/25 06:24:11;;;;;;;10.55;1.90;;;;;;;;;;6243216;28;20069;-65
2024/01/25 06:27:13;;;;;;;16.25;3.35;;;;;;;;;;6238565;28;20053;-65
2024/01/25 06:30:14;;;;;;;9.57;2.75;;;;;;;;;;6238843;28;20041;-66
2024/01/25 06:33:15;;;;;;;16.23;2.63;;;;;;;;;;6239520;28;20063;-66
2024/01/25 06:36:16;;;;;;;9.35;2.22;;;;;;;;;;6242252;28;20049;-66
2024/01/25 06:39:17;;;;;;;9.80;2.45;;;;;;;;;;6242949;28;20067;-67
2024/01/25 06:42:18;;;;;;;9.45;2.35;;;;;;;;;;6243058;28;20041;-66
2024/01/25 06:45:19;;;;;;;8.05;1.95;;;;;;;;;;6240522;28;20055;-65
2024/01/25 06:48:19;;;;;;;11.25;3.65;;;;;;;;;;6242531;28;20476;-66
2024/01/25 06:51:20;;;;;;;7.55;2.15;;;;;;;;;;6243554;28;20123;-67
2024/01/25 06:54:22;;;;;;;9.93;2.10;;;;;;;;;;6242171;28;20076;-66
2024/01/25 06:57:23;;;;;;;12.50;2.28;;;;;;;;;;6243076;28;20052;-67
2024/01/25 07:00:23;;;;;;;10.55;2.25;;;;;;;;;;6243423;28;20046;-68
2024/01/25 07:03:24;;;;;;;8.50;2.40;;;;;;;;;;6240961;28;20127;-66
2024/01/25 07:06:26;;;;;;;9.18;2.20;;;;;;;;;;6239464;28;20717;-67
2024/01/25 07:09:27;;;;;;;17.80;2.85;;;;;;;;;;6240171;28;20489;-66
2024/01/25 07:12:28;;;;;;;11.90;2.60;;;;;;;;;;6242549;28;20057;-65
2024/01/25 07:15:29;;;;;;;8.93;2.38;;;;;;;;;;6241267;28;20049;-65
2024/01/25 07:18:30;;;;;;;8.73;2.15;;;;;;;;;;6242418;28;20100;-66
2024/01/25 07:21:32;;;;;;;11.68;2.67;;;;;;;;;;6242810;28;20049;-65
2024/01/25 07:24:32;;;;;;;13.65;2.72;;;;;;;;;;6239765;28;20037;-65
2024/01/25 07:27:33;;;;;;;7.68;2.15;;;;;;;;;;6242078;28;20416;-65
2024/01/25 07:30:34;;;;;;;9.77;3.22;;;;;;;;;;6242489;28;20109;-65
2024/01/25 07:33:36;;;;;;;13.75;2.88;;;;;;;;;;6241330;28;20041;-66
2024/01/25 07:36:37;;;;;;;7.93;2.13;;;;;;;;;;6241105;28;20045;-64
2024/01/25 07:39:38;;;;;;;7.60;2.17;;;;;;;;;;6240797;28;20519;-65
2024/01/25 07:42:38;;;;;;;9.35;2.38;;;;;;;;;;6241290;28;20053;-65
2024/01/25 07:45:40;;;;;;;11.00;2.35;;;;;;;;;;6238753;28;20057;-65
2024/01/25 07:48:41;;;;;;;15.85;2.88;;;;;;;;;;6238472;28;20535;-65
2024/01/25 07:51:42;;;;;;;7.85;2.30;;;;;;;;;;6241775;28;20037;-66
2024/01/25 07:54:44;;;;;;;7.43;1.83;;;;;;;;;;6240306;28;20049;-65
2024/01/25 07:57:45;;;;;;;7.30;1.67;;;;;;;;;;6243511;28;20056;-67
2024/01/25 08:00:45;;;;;;;9.45;1.98;;;;;;;;;;6240093;28;20409;-67
2024/01/25 08:03:46;;;;;;;9.38;1.90;;;;;;;;;;6239769;28;20046;-65
2024/01/25 08:06:47;;;;;;;17.50;3.25;;;;;;;;;;6240975;28;20041;-66
2024/01/25 08:09:51;;;;;;;9.55;2.65;;;;;;;;;;6241149;28;20522;-65
2024/01/25 08:12:53;;;;;;;16.58;2.90;;;;;;;;;;6241364;28;20195;-66
2024/01/25 08:15:55;;;;;;;14.02;2.70;;;;;;;;;;6239608;28;20064;-66
2024/01/25 08:18:55;;;;;;;12.20;2.58;;;;;;;;;;6242873;28;20504;-66
2024/01/25 08:21:56;;;;;;;14.38;2.97;;;;;;;;;;6239900;28;20053;-66
2024/01/25 08:24:57;;;;;;;15.07;3.17;;;;;;;;;;6238495;28;20049;-66
2024/01/25 08:27:58;;;;;;;11.20;2.92;;;;;;;;;;6240582;28;20069;-65
2024/01/25 08:30:59;;;;;;;11.20;2.50;;;;;;;;;;6239314;28;20060;-66
2024/01/25 08:33:59;;;;;;;9.68;2.63;;;;;;;;;;6241441;28;20064;-66
2024/01/25 08:37:00;;;;;;;7.22;2.35;;;;;;;;;;6238718;28;20056;-66
2024/01/25 08:40:01;;;;;;;15.20;3.55;;;;;;;;;;6240065;28;20881;-66
2024/01/25 08:43:01;;;;;;;13.23;2.55;;;;;;;;;;6240533;28;20641;-66
2024/01/25 08:46:03;;;;;;;12.63;2.95;;;;;;;;;;6238805;28;20407;-66
2024/01/25 08:49:08;;;;;;;14.55;3.25;;;;;;;;;;6240347;28;20056;-66
2024/01/25 08:52:09;;;;;;;12.02;2.92;;;;;;;;;;6239423;28;20054;-66
2024/01/25 08:55:09;;;;;;;14.60;3.30;;;;;;;;;;6252823;28;20107;-67
2024/01/25 08:58:10;;;;;;;15.40;2.50;;;;;;;;;;6238847;28;20041;-65
2024/01/25 09:01:12;;;;;;;11.57;3.13;;;;;;;;;;6238369;28;20100;-66
2024/01/25 09:04:13;;;;;;;;;;;;;;;;;;6239982;28;20044;-65
2024/01/25 09:07:14;;;;;;;11.98;2.35;;;;;;;;;;6239512;28;20284;-66
2024/01/25 09:10:15;;;;;;;11.23;2.28;;;;;;;;;;6240643;28;20072;-66
2024/01/25 09:13:15;;;;;;;12.93;2.42;;;;;;;;;;6240054;28;20042;-66
2024/01/25 09:16:16;;;;;;;14.98;2.30;;;;;;;;;;6238835;28;20488;-66
2024/01/25 09:19:17;;;;;;;12.18;3.15;;;;;;;;;;6239723;28;20504;-65
2024/01/25 09:22:19;;;;;;;10.90;2.30;;;;;;;;;;6238380;28;20064;-65
2024/01/25 09:25:20;;;;;;;12.65;2.75;;;;;;;;;;6236678;28;20088;-65
2024/01/25 09:28:21;;;;;;;12.23;2.83;;;;;;;;;;6239126;28;20057;-65
2024/01/25 09:31:21;;;;;;;10.70;3.40;;;;;;;;;;6239609;28;20098;-66
2024/01/25 09:34:22;;;;;;;13.02;2.63;;;;;;;;;;6238868;28;20046;-66
2024/01/25 09:37:24;;;;;;;15.00;2.72;;;;;;;;;;6238223;28;20099;-66
2024/01/25 09:40:25;;;;;;;12.68;2.80;;;;;;;;;;6237754;28;20497;-66
2024/01/25 09:43:26;;;;;;;12.38;3.22;;;;;;;;;;6237883;28;20053;-66
2024/01/25 09:46:28;;;;;;;14.45;3.10;;;;;;;;;;6238138;28;20053;-66
2024/01/25 09:49:28;;;;;;;10.95;3.10;;;;;;;;;;6241142;28;20049;-66
2024/01/25 09:52:29;;;;;;;14.27;2.97;;;;;;;;;;6241162;28;20467;-66
2024/01/25 09:55:32;;;;;;;13.57;3.20;;;;;;;;;;6239219;28;20092;-66
2024/01/25 09:58:45;;;;;;;11.10;3.22;;;;;;;;;;6239549;28;20519;-63
2024/01/25 10:01:48;;;;;;;11.73;3.00;;;;;;;;;;6240164;28;20046;-79
2024/01/25 10:04:52;;;;;;;12.93;2.78;;;;;;;;;;6236630;28;20049;-69
2024/01/25 10:07:53;;;;;;;14.98;3.40;;;;;;;;;;6235985;28;20150;-67
2024/01/25 10:10:54;;;;;;;14.63;3.00;;;;;;;;;;6244201;28;20493;-66
2024/01/25 10:13:56;;;;;;;15.38;2.72;;;;;;;;;;6244749;28;20118;-67
2024/01/25 10:16:58;;;;;;;13.18;2.95;;;;;;;;;;6243623;28;20053;-67
2024/01/25 10:19:59;;;;;;;14.10;4.00;;;;;;;;;;6244221;28;20762;-66
2024/01/25 10:23:00;;;;;;;14.63;3.15;;;;;;;;;;6239182;28;20497;-65
2024/01/25 10:26:00;;;;;;;10.98;2.53;;;;;;;;;;6238459;28;20053;-68
2024/01/25 10:29:02;;;;;;;8.25;3.33;;;;;;;;;;6231125;28;20058;-66
2024/01/25 10:32:04;;;;;;;13.95;3.35;;;;;;;;;;6244800;28;20073;-67
2024/01/25 10:35:07;;;;;;;13.38;3.03;;;;;;;;;;6226504;28;20050;-67
2024/01/25 10:38:07;;;;;;;;;;;;;;;;;;6242612;28;20049;-66
2024/01/25 10:41:08;;;;;;;11.20;2.67;;;;;;;;;;6245007;28;19964;-66
2024/01/25 10:44:09;;;;;;;11.05;3.30;;;;;;;;;;6244877;28;20053;-66
2024/01/25 10:47:10;;;;;;;11.82;2.53;;;;;;;;;;6242720;28;20423;-66
2024/01/25 10:50:13;;;;;;;13.20;2.95;;;;;;;;;;6244892;28;20048;-67
2024/01/25 10:53:16;;;;;;;15.15;3.33;;;;;;;;;;6235027;28;20054;-66
2024/01/25 10:56:17;;;;;;;13.48;2.70;;;;;;;;;;6241944;28;20496;-66
2024/01/25 10:59:18;;;;;;;14.52;3.13;;;;;;;;;;6240146;28;20052;-67
2024/01/25 11:02:19;;;;;;;17.85;3.80;;;;;;;;;;6240150;28;20051;-65
2024/01/25 11:05:23;;;;;;;11.25;2.53;;;;;;;;;;6238601;28;20038;-66
2024/01/25 11:08:23;;;;;;;11.77;2.65;;;;;;;;;;6241151;28;20049;-67
2024/01/25 11:11:24;;;;;;;14.40;3.42;;;;;;;;;;6239194;28;20489;-66
2024/01/25 11:14:25;;;;;;;11.73;2.75;;;;;;;;;;6241486;28;20104;-66
2024/01/25 11:17:31;;;;;;;12.68;3.05;;;;;;;;;;6237191;28;20048;-66
2024/01/25 11:20:34;;;;;;;13.65;3.05;;;;;;;;;;6239385;28;20071;-66
2024/01/25 11:23:35;;;;;;;10.80;2.53;;;;;;;;;;6242028;28;20056;-67
2024/01/25 11:26:37;;;;;;;15.30;4.35;;;;;;;;;;6238065;28;20041;-66
2024/01/25 11:29:41;;;;;;;16.65;3.38;;;;;;;;;;6240180;28;20504;-66
2024/01/25 11:32:42;;;;;;;13.30;2.70;;;;;;;;;;6239152;28;20049;-68
2024/01/25 11:35:43;;;;;;;13.02;2.90;;;;;;;;;;6240867;28;20756;-66
2024/01/25 11:38:44;;;;;;;9.88;2.47;;;;;;;;;;6238918;28;20045;-66
2024/01/25 11:41:47;;;;;;;11.90;2.70;;;;;;;;;;6239996;28;20093;-66
2024/01/25 11:44:48;;;;;;;11.60;2.72;;;;;;;;;;6239408;28;20104;-66
2024/01/25 11:47:49;;;;;;;14.90;4.03;;;;;;;;;;6238167;28;20056;-66
2024/01/25 11:50:50;;;;;;;10.95;2.95;;;;;;;;;;6239759;28;20045;-66
2024/01/25 11:53:51;;;;;;;12.40;2.92;;;;;;;;;;6240729;28;20056;-67
2024/01/25 11:56:52;;;;;;;16.25;2.97;;;;;;;;;;6255208;28;20049;-66
2024/01/25 11:59:53;;;;;;;17.35;4.88;;;;;;;;;;6234022;28;20064;-67
2024/01/25 12:02:54;;;;;;;12.98;2.92;;;;;;;;;;6238943;28;20500;-66
2024/01/25 12:05:54;;;;;;;11.88;3.50;;;;;;;;;;6240604;28;20053;-68
2024/01/25 12:09:05;;;;;;;11.20;2.67;;;;;;;;;;6238939;28;20855;-66
2024/01/25 12:12:06;;;;;;;15.07;2.92;;;;;;;;;;6240044;28;20492;-66
2024/01/25 12:15:07;;;;;;;11.90;3.38;;;;;;;;;;6238387;28;20548;-67
2024/01/25 12:18:09;;;;;;;13.40;3.38;;;;;;;;;;6238301;28;20413;-67
2024/01/25 12:21:13;;;;;;;12.00;3.17;;;;;;;;;;6234850;28;20086;-67
2024/01/25 12:24:13;;;;;;;;;;;;;;;;;;6239309;28;20136;-66
2024/01/25 12:27:16;;;;;;;15.65;3.42;;;;;;;;;;6239371;28;19974;-66
2024/01/25 12:30:16;;;;;;;11.27;3.10;;;;;;;;;;6237652;28;20068;-66
2024/01/25 12:33:17;;;;;;;15.20;3.10;;;;;;;;;;6239397;28;20504;-66
2024/01/25 12:36:17;;;;;;;11.02;3.08;;;;;;;;;;6239694;28;20488;-66
2024/01/25 12:39:18;;;;;;;20.02;3.08;;;;;;;;;;6238215;28;20099;-66
2024/01/25 12:42:20;;;;;;;8.57;3.05;;;;;;;;;;6237249;28;21007;-67
2024/01/25 12:45:21;;;;;;;13.70;3.60;;;;;;;;;;6240113;28;20045;-66
2024/01/25 12:48:22;;;;;;;14.13;3.83;;;;;;;;;;6237501;28;20469;-68
2024/01/25 12:51:25;;;;;;;14.40;2.88;;;;;;;;;;6239996;28;20068;-67
2024/01/25 12:54:26;;;;;;;12.85;3.15;;;;;;;;;;6238887;28;20455;-66
2024/01/25 12:57:27;;;;;;;8.60;2.90;;;;;;;;;;6236762;28;20052;-67
2024/01/25 13:00:27;;;;;;;9.88;2.65;;;;;;;;;;6238461;28;20507;-66
2024/01/25 13:03:28;;;;;;;9.93;2.80;;;;;;;;;;6237659;28;20599;-67
2024/01/25 13:06:29;;;;;;;13.45;3.42;;;;;;;;;;6236169;28;20123;-68
2024/01/25 13:09:33;;;;;;;10.18;3.00;;;;;;;;;;6237029;28;20132;-68
2024/01/25 13:12:33;;;;;;;9.75;3.03;;;;;;;;;;6235812;28;20091;-66
2024/01/25 13:15:34;;;;;;;14.68;3.17;;;;;;;;;;6237756;28;20049;-66
2024/01/25 13:18:35;;;;;;;16.73;3.60;;;;;;;;;;6235105;28;20049;-68
2024/01/25 13:21:36;;;;;;;10.65;2.83;;;;;;;;;;6225635;28;20515;-67
2024/01/25 13:24:37;;;;;;;12.82;2.50;;;;;;;;;;6237623;28;20759;-66
2024/01/25 13:27:38;;;;;;;10.32;3.00;;;;;;;;;;6239198;28;20056;-67
2024/01/25 13:30:38;;;;;;;13.32;3.20;;;;;;;;;;6236099;28;20121;-67
2024/01/25 13:33:39;;;;;;;10.82;2.65;;;;;;;;;;6238462;28;20111;-66
2024/01/25 13:36:40;;;;;;;14.07;3.30;;;;;;;;;;6238866;28;20076;-68
2024/01/25 13:39:41;;;;;;;12.93;3.20;;;;;;;;;;6236827;28;20119;-68
2024/01/25 13:42:41;;;;;;;13.75;2.75;;;;;;;;;;6250208;28;20052;-66
2024/01/25 13:45:42;;;;;;;11.20;2.58;;;;;;;;;;6226121;28;20045;-67
2024/01/25 13:48:43;;;;;;;12.85;2.90;;;;;;;;;;6228020;28;21384;-66
2024/01/25 13:51:44;;;;;;;14.27;2.85;;;;;;;;;;6231319;28;20049;-66
2024/01/25 13:54:46;;;;;;;15.77;3.63;;;;;;;;;;6222396;28;20092;-67
2024/01/25 13:57:47;;;;;;;13.60;3.38;;;;;;;;;;6228454;28;20099;-68
2024/01/25 14:00:48;;;;;;;14.48;3.05;;;;;;;;;;6225142;28;20058;-67
2024/01/25 14:03:51;;;;;;;10.15;3.13;;;;;;;;;;6227808;28;20839;-66
2024/01/25 14:06:52;;;;;;;13.48;3.35;;;;;;;;;;6227922;28;20057;-67
2024/01/25 14:09:53;;;;;;;9.57;2.50;;;;;;;;;;6225760;28;20049;-66
2024/01/25 14:12:54;;;;;;;15.77;3.85;;;;;;;;;;6226945;28;20050;-66
2024/01/25 14:15:55;;;;;;;9.77;2.90;;;;;;;;;;6241563;28;20053;-66
2024/01/25 14:18:58;;;;;;;11.80;3.08;;;;;;;;;;6226041;28;20076;-67
2024/01/25 14:21:59;;;;;;;14.75;4.18;;;;;;;;;;6229340;28;20057;-66
2024/01/25 14:24:59;;;;;;;11.30;3.05;;;;;;;;;;6228602;28;20119;-68
2024/01/25 14:28:00;;;;;;;16.60;3.47;;;;;;;;;;6226589;28;20053;-68
2024/01/25 14:31:01;;;;;;;11.43;3.45;;;;;;;;;;6227567;28;20056;-68
2024/01/25 14:34:02;;;;;;;10.00;3.08;;;;;;;;;;6227005;28;20569;-67
2024/01/25 14:37:03;;;;;;;12.00;3.42;;;;;;;;;;6226295;28;20045;-69
2024/01/25 14:40:04;;;;;;;12.82;3.53;;;;;;;;;;6224724;28;20062;-66
2024/01/25 14:43:05;;;;;;;14.27;3.35;;;;;;;;;;6227673;28;20077;-68
2024/01/25 14:46:07;;;;;;;15.35;3.67;;;;;;;;;;6225390;28;20093;-67
2024/01/25 14:49:07;;;;;;;10.60;3.38;;;;;;;;;;6224427;28;20137;-67
2024/01/25 14:52:08;;;;;;;16.80;3.35;;;;;;;;;;6225574;28;20493;-66
2024/01/25 14:55:09;;;;;;;15.77;3.53;;;;;;;;;;6229255;28;22028;-67
2024/01/25 14:58:10;;;;;;;11.52;2.90;;;;;;;;;;6230538;28;20126;-70
2024/01/25 15:01:17;;;;;;;11.00;2.90;;;;;;;;;;6230631;28;20571;-67
2024/01/25 15:04:18;;;;;;;10.18;2.95;;;;;;;;;;6227566;28;20057;-66
2024/01/25 15:07:22;;;;;;;10.05;3.83;;;;;;;;;;6234123;28;20057;-67
2024/01/25 15:10:23;;;;;;;13.70;3.05;;;;;;;;;;6229799;28;20436;-66
2024/01/25 15:13:23;;;;;;;19.63;3.70;;;;;;;;;;6246635;28;20056;-67
2024/01/25 15:16:24;;;;;;;14.35;3.33;;;;;;;;;;6227884;28;20495;-66
2024/01/25 15:19:25;;;;;;;14.77;2.97;;;;;;;;;;6230501;28;20053;-68
2024/01/25 15:22:26;;;;;;;10.48;2.90;;;;;;;;;;6230607;28;20060;-70
2024/01/25 15:25:26;;;;;;;13.15;3.00;;;;;;;;;;6227731;28;20607;-69
2024/01/25 15:28:27;;;;;;;17.55;3.53;;;;;;;;;;6231667;28;20064;-69
2024/01/25 15:31:28;;;;;;;16.05;4.13;;;;;;;;;;6227999;28;20045;-66
2024/01/25 15:34:28;;;;;;;16.17;3.30;;;;;;;;;;6228529;28;20104;-68
2024/01/25 15:37:29;;;;;;;8.88;3.10;;;;;;;;;;6228940;28;20053;-67
2024/01/25 15:40:30;;;;;;;18.27;3.88;;;;;;;;;;6227553;28;20045;-68
2024/01/25 15:43:31;;;;;;;9.38;2.80;;;;;;;;;;6231474;28;20054;-68
2024/01/25 15:46:31;;;;;;;12.35;2.75;;;;;;;;;;6226765;28;20053;-69
2024/01/25 15:49:32;;;;;;;10.75;2.95;;;;;;;;;;6228303;28;20101;-67
2024/01/25 15:52:33;;;;;;;15.02;3.00;;;;;;;;;;6227980;28;20053;-68
2024/01/25 15:55:33;;;;;;;14.15;3.03;;;;;;;;;;6231193;28;20045;-68
2024/01/25 15:58:35;;;;;;;13.32;2.83;;;;;;;;;;6226927;28;20582;-68
2024/01/25 16:01:36;;;;;;;10.10;2.55;;;;;;;;;;6228352;28;20132;-68
2024/01/25 16:04:38;;;;;;;15.57;3.28;;;;;;;;;;6231010;28;20049;-68
2024/01/25 16:07:40;;;;;;;10.65;2.80;;;;;;;;;;6229395;28;20068;-70
2024/01/25 16:10:41;;;;;;;12.35;3.40;;;;;;;;;;6229104;28;20046;-68
2024/01/25 16:13:41;;;;;;;14.85;2.88;;;;;;;;;;6231205;28;20063;-70
2024/01/25 16:16:42;;;;;;;11.70;2.63;;;;;;;;;;6228705;28;20045;-67
2024/01/25 16:19:43;;;;;;;18.50;2.97;;;;;;;;;;6227830;28;20052;-67
2024/01/25 16:22:44;;;;;;;13.98;3.78;;;;;;;;;;6230541;28;20045;-68
2024/01/25 16:25:44;;;;;;;12.30;2.90;;;;;;;;;;6226681;28;20049;-69
2024/01/25 16:28:45;;;;;;;9.02;2.80;;;;;;;;;;6230702;28;20069;-68
2024/01/25 16:31:46;;;;;;;13.27;3.55;;;;;;;;;;6230876;28;20056;-74
2024/01/25 16:34:47;;;;;;;12.88;3.30;;;;;;;;;;6230588;28;20049;-69
2024/01/25 16:37:48;;;;;;;14.07;3.53;;;;;;;;;;6232497;28;20049;-67
2024/01/25 16:40:49;;;;;;;10.20;3.25;;;;;;;;;;6231227;28;20136;-66
2024/01/25 16:43:49;;;;;;;13.82;3.40;;;;;;;;;;6231874;28;20061;-66
2024/01/25 16:46:50;;;;;;;13.70;3.25;;;;;;;;;;6229752;28;20508;-68
2024/01/25 16:49:51;;;;;;;14.95;3.60;;;;;;;;;;6229288;28;20591;-67
2024/01/25 16:52:52;;;;;;;19.45;3.85;;;;;;;;;;6233218;28;20132;-69
2024/01/25 16:55:54;;;;;;;14.98;3.63;;;;;;;;;;6230815;28;20767;-76
2024/01/25 16:58:55;;;;;;;11.48;3.25;;;;;;;;;;6232736;28;20076;-66
2024/01/25 17:01:57;;;;;;;12.40;3.03;;;;;;;;;;6233424;28;20049;-65
2024/01/25 17:04:58;;;;;;;16.80;4.28;;;;;;;;;;6231502;28;20426;-73
2024/01/25 17:07:58;;;;;;;16.42;4.00;;;;;;;;;;6231576;28;20053;-66
2024/01/25 17:10:59;;;;;;;12.45;4.57;;;;;;;;;;6229487;28;20524;-65
2024/01/25 17:14:01;;;;;;;15.20;3.70;;;;;;;;;;6229821;28;20049;-65
2024/01/25 17:17:02;;;;;;;11.65;3.55;;;;;;;;;;6228934;28;20064;-65
2024/01/25 17:20:03;;;;;;;14.10;3.17;;;;;;;;;;6228690;28;20053;-67
2024/01/25 17:23:04;;;;;;;12.18;3.45;;;;;;;;;;6231639;28;20045;-68
2024/01/25 17:26:04;;;;;;;15.43;3.17;;;;;;;;;;6229625;28;20064;-65
2024/01/25 17:29:06;;;;;;;13.70;3.33;;;;;;;;;;6228814;28;20064;-66
2024/01/25 17:32:07;;;;;;;15.38;3.65;;;;;;;;;;6230316;28;20386;-65
2024/01/25 17:35:08;;;;;;;13.98;3.17;;;;;;;;;;6229022;28;20049;-64
2024/01/25 17:38:09;;;;;;;16.95;4.22;;;;;;;;;;6230398;28;20049;-65
2024/01/25 17:41:10;;;;;;;13.52;3.30;;;;;;;;;;6228613;28;20102;-66
2024/01/25 17:44:11;;;;;;;14.60;3.65;;;;;;;;;;6225189;28;20057;-65
2024/01/25 17:47:12;;;;;;;16.65;4.03;;;;;;;;;;6226884;28;20574;-65
2024/01/25 17:50:13;;;;;;;21.02;4.90;;;;;;;;;;6226732;28;20057;-64
2024/01/25 17:53:14;;;;;;;15.93;3.80;;;;;;;;;;6228345;28;20042;-67